Terminal Aerodrome Forecast
Issued by NWS

Home | Current Version | Previous Version | Text Only | Print | Product List | Glossary On
Versions: 1 2 3 4 5 6 7 8 9 10 11 12 13 14 15 16 17 18 19 20 21 22
000
FTUS42 KMLB 281421 AAB
TAFSFB
TAF AMD
KSFB 281421Z 2814/2912 05008KT P6SM SCT015 BKN025
      TEMPO 2814/2815 BKN015
     FM281600 06010KT P6SM VCSH SCT030
      TEMPO 2817/2819 5SM -SHRA BKN030
     FM281900 07010KT P6SM VCTS SCT035CB BKN080
      TEMPO 2819/2822 3SM TSRA BKN025CB
     FM290000 07007KT P6SM VCSH SCT025 BKN070
     FM290300 06003KT P6SM FEW025 SCT120 BKN250=

USA.gov is the U.S. government's official web portal to all federal, state and local government web resources and services.